Airfield :
LOGIN :

Register | Disclaimer

   EN    FR    IT 

 










Legend :    VFR   Marginal VFR   IFR   Intensive IFR   Very Intensive IFR
Visi :
Ceiling :
>= 8 km
>= 3000ft
5 to 8 km
1000 to 3000 ft
1500m to 5 km
500 to 1000 ft
800 to 1500m
200 to 500 ft
< 800m
< 200 ft
Symbols :   Thunderstorms  Fog  Heavy snow  Heavy precipitations  Wind > 20 kt
SIGMETs :     Misc.  Thunderstorms  Icing  Turbulence  Mountain Waves  Volcanic Ashes







- Airport Elevation : 44 ft
- IATA code : SOU
- Download approach charts


EGHI - Southampton

CURRENT METAR :
  • 160820Z 20015KT 5000 DZ SCT004 BKN010 08/07 Q1007

EXPIRED METARs :
  • 160750Z 20013KT 5000 -RADZ SCT004 BKN010 08/07 Q1007
  • 160720Z 20015KT 5000 -RADZ SCT004 BKN010 08/07 Q1008
  • 160650Z 21014KT 5000 -RADZ SCT004 BKN010 08/07 Q1008
  • 160620Z 21014KT 5000 DZ SCT004 BKN008 08/07 Q1008
  • 160550Z 21012KT 170V240 7000 DZ FEW004 BKN008 08/07 Q1009

TAF TAF EGHI
Valid from the 16 at 09:00 until the 16 at 18:00 UTC


160805Z 1609/1618 20012KT 9999 SCT016
PROB30
TEMPO 1609/1611 6000 -RADZ BKN005
BECMG 1612/1615 28008KT
TEMPO 1612/1616 7000 -RA SCT006 BKN012
PROB30
TEMPO 1612/1616 4000 RA BKN006
PROB30
TEMPO 1616/1618 7000 SHRA BKN014
ATIS : +44 23 8062 7103
No reported NOTAMs for that airfield.



MET'MAP, your aeronautical weather chart ! - Copyright ORBIFLY December 2007 - Disclaimer

ORBIFLY MET'MAP TEAM :

Programming & Development : Alexandra Zaïnal
Concept & Development : Baudouin d'Aumeries
Co-Development & Prog : Marc-Olivier Méhu
Technical & hardware support : Manuel Goepfert

Contact : metmap@orbifly.com




SOURCES & CREDITS :

   NOAA